Terminal Aerodrome Forecast
Issued by NWS

Home | Current Version | Previous Version | Text Only | Print | Product List | Glossary On
Versions: 1 2 3 4 5 6 7 8 9 10 11 12 13 14 15 16 17
000
FTUS44 KOUN 232337
TAFHBR
TAF
KHBR 232337Z 2400/2424 15022G31KT P6SM SCT060 BKN100
      TEMPO 2400/2403 VRB45KT 2SM TSRA OVC040CB
     FM240700 19018G25KT P6SM BKN030
     FM241100 34020G30KT P6SM SCT030 BKN120
     FM241800 35017G25KT P6SM SCT150=

USA.gov is the U.S. government's official web portal to all federal, state and local government web resources and services.